Time;durP1;ratioP1;P1;durP2;ratioP2;P2;SDS_P1;SDS_P2;PMS_P1;PMS_P2;Temp;Humidity;BMP_temperature;BMP_pressure;BME280_temperature;BME280_humidity;BME280_pressure;Samples;Min_cycle;Max_cycle;Signal;HPM_P1;HPM_P2
2022/09/15 00:01:19;;;;;;;0.40;0.20;;;;;;;19.02;100.00;95337.13;5113925;28;20420;-57
2022/09/15 00:03:48;;;;;;;0.40;0.20;;;;;;;19.04;100.00;95339.53;5114175;28;20531;-57
2022/09/15 00:06:19;;;;;;;0.40;0.40;;;;;;;18.46;100.00;95294.47;5114586;28;20426;-57
2022/09/15 00:08:47;;;;;;;0.50;0.50;;;;;;;18.13;100.00;95347.84;5113677;28;20505;-57
2022/09/15 00:11:17;;;;;;;0.40;0.20;;;;;;;18.60;100.00;95353.38;5113320;28;20438;-57
2022/09/15 00:13:46;;;;;;;0.40;0.30;;;;;;;18.76;100.00;95365.19;5113540;27;20972;-57
2022/09/15 00:16:16;;;;;;;0.40;0.30;;;;;;;18.78;100.00;95365.66;5114125;28;20426;-57
2022/09/15 00:18:45;;;;;;;0.40;0.20;;;;;;;18.45;100.00;95356.50;5113616;28;20431;-57
2022/09/15 00:21:17;;;;;;;0.40;0.20;;;;;;;18.74;100.00;95360.16;5114098;28;20831;-57
2022/09/15 00:23:47;;;;;;;0.40;0.30;;;;;;;18.85;100.00;95363.25;5113770;28;20427;-57
2022/09/15 00:26:18;;;;;;;0.40;0.30;;;;;;;18.89;100.00;95354.25;5113582;28;20427;-57
2022/09/15 00:28:47;;;;;;;0.50;0.30;;;;;;;18.89;100.00;95365.00;5113492;28;20976;-56
2022/09/15 00:31:18;;;;;;;6.17;0.60;;;;;;;18.43;100.00;95316.59;5113770;28;20987;-57
2022/09/15 00:33:48;;;;;;;0.50;0.30;;;;;;;18.85;100.00;95358.69;5113698;28;20423;-57
2022/09/15 00:36:17;;;;;;;0.40;0.30;;;;;;;18.71;100.00;95352.72;5113698;28;20418;-57
2022/09/15 00:38:47;;;;;;;0.40;0.30;;;;;;;18.79;100.00;95346.56;5112572;28;20428;-57
2022/09/15 00:41:17;;;;;;;0.50;0.30;;;;;;;18.51;100.00;95288.97;5113098;28;20812;-57
2022/09/15 00:43:50;;;;;;;1.03;0.30;;;;;;;18.66;100.00;95334.09;5113373;28;20436;-57
2022/09/15 00:46:20;;;;;;;0.50;0.30;;;;;;;18.74;100.00;95330.63;5113342;28;20804;-56
2022/09/15 00:48:54;;;;;;;0.50;0.40;;;;;;;18.70;100.00;95332.34;5113110;28;20436;-57
2022/09/15 00:51:28;;;;;;;0.40;0.27;;;;;;;18.67;100.00;95338.34;5112311;28;20475;-57
2022/09/15 00:54:00;;;;;;;0.50;0.33;;;;;;;18.73;100.00;95336.28;5113278;28;20806;-57
2022/09/15 00:56:30;;;;;;;0.40;0.20;;;;;;;18.67;100.00;95319.56;5112187;28;20420;-56
2022/09/15 00:59:02;;;;;;;0.40;0.20;;;;;;;18.66;100.00;95338.69;5113328;28;20447;-57
2022/09/15 01:01:31;;;;;;;0.40;0.30;;;;;;;18.60;100.00;95323.84;5113058;28;20420;-56
2022/09/15 01:04:00;;;;;;;0.40;0.20;;;;;;;18.63;100.00;95331.25;5112801;28;21017;-57
2022/09/15 01:06:34;;;;;;;0.40;0.30;;;;;;;18.68;100.00;95339.94;5112005;28;20932;-57
2022/09/15 01:09:09;;;;;;;0.40;0.30;;;;;;;18.86;100.00;95348.72;5112673;28;20419;-56
2022/09/15 01:11:38;;;;;;;0.40;0.20;;;;;;;18.65;100.00;95340.56;5112731;28;20463;-56
2022/09/15 01:14:07;;;;;;;0.50;0.40;;;;;;;18.80;100.00;95340.06;5113177;28;20430;-57
2022/09/15 01:16:48;;;;;;;0.50;0.30;;;;;;;18.30;100.00;95339.81;5112605;28;20438;-56
2022/09/15 01:19:52;;;;;;;0.50;0.30;;;;;;;18.15;100.00;95288.53;5112915;28;20447;-57
2022/09/15 01:22:33;;;;;;;0.40;0.30;;;;;;;18.33;100.00;95338.38;5111837;28;20824;-57
2022/09/15 01:25:09;;;;;;;0.40;0.20;;;;;;;18.40;100.00;95326.06;5112088;28;20959;-56
2022/09/15 01:28:14;;;;;;;0.70;0.30;;;;;;;18.47;100.00;95319.47;5112710;28;20426;-57
2022/09/15 01:30:49;;;;;;;0.40;0.27;;;;;;;18.55;100.00;95327.47;5112181;28;20474;-56
2022/09/15 01:33:30;;;;;;;0.40;0.20;;;;;;;18.52;100.00;95321.97;5112333;28;20979;-56
2022/09/15 01:36:05;;;;;;;0.50;0.30;;;;;;;18.58;100.00;95332.22;5112719;28;20415;-56
2022/09/15 01:38:55;;;;;;;0.40;0.20;;;;;;;18.39;100.00;95311.06;5112561;28;20448;-56
2022/09/15 01:41:27;;;;;;;0.40;0.30;;;;;;;18.12;100.00;95249.72;5112305;28;20436;-57
2022/09/15 01:44:02;;;;;;;0.40;0.30;;;;;;;18.48;100.00;95319.13;5112636;28;20806;-56
2022/09/15 01:46:35;;;;;;;0.87;0.57;;;;;;;18.05;100.00;95318.34;5112409;28;20418;-56
2022/09/15 01:49:06;;;;;;;0.50;0.43;;;;;;;18.34;100.00;95308.53;5112182;28;20450;-56
2022/09/15 01:51:36;;;;;;;1.23;0.27;;;;;;;18.52;100.00;95313.94;5112481;28;20885;-56
2022/09/15 01:54:06;;;;;;;0.40;0.20;;;;;;;18.15;100.00;95289.31;5112077;28;20423;-56
2022/09/15 01:56:36;;;;;;;0.50;0.40;;;;;;;18.29;100.00;95306.00;5112045;28;20786;-56
2022/09/15 01:59:05;;;;;;;0.40;0.30;;;;;;;18.40;100.00;95307.28;5112112;28;20930;-56
2022/09/15 02:01:48;;;;;;;0.50;0.33;;;;;;;17.90;100.00;95308.09;5110770;28;20432;-56
2022/09/15 02:04:21;;;;;;;0.40;0.30;;;;;;;17.98;100.00;95312.66;5111983;28;20429;-56
2022/09/15 02:06:55;;;;;;;0.40;0.30;;;;;;;17.49;100.00;95311.16;5112034;28;20905;-56
2022/09/15 02:09:30;;;;;;;0.40;0.30;;;;;;;17.79;100.00;95304.91;5111905;28;21003;-56
2022/09/15 02:12:11;;;;;;;0.47;0.30;;;;;;;17.34;100.00;95308.91;5111311;28;20465;-56
2022/09/15 02:14:52;;;;;;;0.50;0.40;;;;;;;17.04;100.00;95302.53;5112309;28;20801;-56
2022/09/15 02:17:23;;;;;;;0.73;0.73;;;;;;;16.42;100.00;95299.84;5111932;28;20945;-56
2022/09/15 02:19:57;;;;;;;0.40;0.30;;;;;;;16.41;100.00;95311.66;5111908;28;20940;-56
2022/09/15 02:22:29;;;;;;;0.40;0.30;;;;;;;16.93;100.00;95299.34;5111586;28;20432;-56
2022/09/15 02:25:04;;;;;;;0.50;0.30;;;;;;;16.96;100.00;95311.31;5111995;28;20431;-56
2022/09/15 02:27:37;;;;;;;0.40;0.30;;;;;;;17.38;100.00;95305.28;5111772;28;20947;-56
2022/09/15 02:30:10;;;;;;;0.40;0.20;;;;;;;17.33;100.00;95300.09;5112052;28;20436;-54
2022/09/15 02:32:46;;;;;;;0.50;0.47;;;;;;;16.76;100.00;95295.78;5111446;28;20519;-55
2022/09/15 02:35:17;;;;;;;0.50;0.40;;;;;;;17.31;100.00;95307.66;5112056;28;20442;-56
2022/09/15 02:37:46;;;;;;;0.40;0.30;;;;;;;16.95;100.00;95250.84;5112090;28;20427;-55
2022/09/15 02:40:14;;;;;;;0.50;0.30;;;;;;;17.18;100.00;95310.47;5111699;28;20968;-55
2022/09/15 02:42:52;;;;;;;0.40;0.20;;;;;;;16.97;100.00;95316.38;5111925;28;20415;-55
2022/09/15 02:45:21;;;;;;;0.60;0.40;;;;;;;16.50;100.00;95312.47;5111797;28;20431;-55
2022/09/15 02:47:51;;;;;;;0.50;0.40;;;;;;;16.45;100.00;95331.34;5111343;28;20925;-55
2022/09/15 02:50:20;;;;;;;0.50;0.40;;;;;;;16.26;100.00;95327.28;5111956;28;20458;-55
2022/09/15 02:52:48;;;;;;;1.00;0.47;;;;;;;16.27;100.00;95310.91;5111490;28;20431;-56
2022/09/15 02:55:17;;;;;;;0.50;0.50;;;;;;;16.46;100.00;95324.09;5111917;28;20424;-54
2022/09/15 02:57:45;;;;;;;0.50;0.40;;;;;;;16.78;100.00;95331.88;5111460;28;20988;-55
2022/09/15 03:00:16;;;;;;;0.50;0.30;;;;;;;17.10;100.00;95326.16;5111928;28;20431;-55
2022/09/15 03:02:46;;;;;;;0.50;0.30;;;;;;;17.17;100.00;95323.06;5114146;28;20952;-55
2022/09/15 03:05:17;;;;;;;0.40;0.20;;;;;;;16.93;100.00;95306.56;5115514;27;20948;-55
2022/09/15 03:07:45;;;;;;;0.40;0.30;;;;;;;17.08;100.00;95316.88;5115151;28;20438;-55
2022/09/15 03:10:14;;;;;;;0.50;0.30;;;;;;;17.13;100.00;95314.06;5115154;28;20423;-55
2022/09/15 03:12:45;;;;;;;0.40;0.20;;;;;;;17.16;100.00;95316.13;5114917;28;20434;-55
2022/09/15 03:15:15;;;;;;;0.50;0.30;;;;;;;17.27;100.00;95308.59;5115071;28;20925;-56
2022/09/15 03:17:45;;;;;;;0.40;0.20;;;;;;;17.41;100.00;95320.75;5114960;28;20462;-55
2022/09/15 03:20:17;;;;;;;0.40;0.20;;;;;;;17.51;100.00;95312.41;5114702;28;20889;-54
2022/09/15 03:22:45;;;;;;;0.40;0.30;;;;;;;17.29;100.00;95306.38;5115041;28;20451;-55
2022/09/15 03:25:14;;;;;;;0.40;0.20;;;;;;;17.22;100.00;95284.63;5114815;28;20424;-55
2022/09/15 03:27:42;;;;;;;0.43;0.30;;;;;;;17.02;100.00;95323.47;5115137;28;20905;-55
2022/09/15 03:30:11;;;;;;;0.50;0.40;;;;;;;17.19;100.00;95326.22;5114811;28;20431;-56
2022/09/15 03:32:40;;;;;;;0.50;0.40;;;;;;;17.25;100.00;95316.94;5114975;28;20490;-55
2022/09/15 03:35:09;;;;;;;0.60;0.30;;;;;;;17.57;100.00;95313.91;5114632;28;20416;-55
2022/09/15 03:37:39;;;;;;;0.40;0.30;;;;;;;17.35;100.00;95321.22;5114824;27;20473;-55
2022/09/15 03:40:09;;;;;;;0.40;0.30;;;;;;;17.56;100.00;95319.56;5114460;28;20434;-55
2022/09/15 03:42:37;;;;;;;0.47;0.27;;;;;;;17.43;100.00;95318.53;5114143;28;20470;-55
2022/09/15 03:45:07;;;;;;;0.40;0.20;;;;;;;17.43;100.00;95326.59;5114369;28;20432;-55
2022/09/15 03:47:35;;;;;;;0.40;0.30;;;;;;;17.48;100.00;95318.41;5114182;28;20435;-55
2022/09/15 03:50:05;;;;;;;0.40;0.30;;;;;;;17.49;100.00;95317.31;5114219;28;20431;-55
2022/09/15 03:52:33;;;;;;;0.40;0.30;;;;;;;17.45;100.00;95316.38;5114139;28;20459;-55
2022/09/15 03:55:03;;;;;;;0.40;0.20;;;;;;;17.44;100.00;95317.47;5114026;27;20435;-55
2022/09/15 03:57:31;;;;;;;0.40;0.30;;;;;;;17.59;100.00;95319.72;5114143;28;20505;-55
2022/09/15 04:00:00;;;;;;;0.40;0.20;;;;;;;17.61;100.00;95311.38;5114051;28;20436;-55
2022/09/15 04:02:28;;;;;;;0.50;0.40;;;;;;;17.47;100.00;95314.16;5113840;27;20431;-55
2022/09/15 04:04:57;;;;;;;0.60;0.57;;;;;;;17.59;100.00;95316.25;5114295;27;20431;-55
2022/09/15 04:07:25;;;;;;;0.40;0.20;;;;;;;17.03;100.00;95283.00;5114028;28;20928;-55
2022/09/15 04:09:54;;;;;;;0.40;0.20;;;;;;;17.22;100.00;95306.06;5113740;28;20442;-55
2022/09/15 04:12:23;;;;;;;0.40;0.30;;;;;;;16.96;100.00;95277.31;5113827;28;20996;-55
2022/09/15 04:14:52;;;;;;;0.40;0.30;;;;;;;17.00;100.00;95317.66;5113618;28;20439;-55
2022/09/15 04:17:21;;;;;;;0.50;0.37;;;;;;;17.30;100.00;95303.41;5113855;28;20437;-55
2022/09/15 04:19:50;;;;;;;0.40;0.30;;;;;;;16.87;100.00;95267.66;5114043;28;20435;-56
2022/09/15 04:22:18;;;;;;;0.50;0.30;;;;;;;17.07;100.00;95315.31;5113704;27;20435;-56
2022/09/15 04:24:47;;;;;;;0.40;0.30;;;;;;;17.46;100.00;95317.94;5113733;28;20432;-55
2022/09/15 04:27:16;;;;;;;0.40;0.20;;;;;;;17.62;100.00;95318.31;5113529;28;20427;-56
2022/09/15 04:29:46;;;;;;;0.50;0.33;;;;;;;17.69;100.00;95310.59;5113429;28;20427;-56
2022/09/15 04:32:14;;;;;;;0.50;0.40;;;;;;;17.39;100.00;95284.66;5113575;28;20995;-55
2022/09/15 04:34:42;;;;;;;0.50;0.30;;;;;;;17.63;100.00;95309.19;5113503;28;20419;-55
2022/09/15 04:37:11;;;;;;;0.40;0.30;;;;;;;17.32;100.00;95287.00;5113385;28;20428;-55
2022/09/15 04:39:39;;;;;;;0.67;0.30;;;;;;;17.64;100.00;95291.97;5112510;28;20909;-55
2022/09/15 04:42:07;;;;;;;0.40;0.30;;;;;;;17.83;100.00;95302.41;5113277;28;20431;-55
2022/09/15 04:44:36;;;;;;;0.40;0.20;;;;;;;18.04;100.00;95312.19;5113154;28;20458;-56
2022/09/15 04:47:05;;;;;;;0.40;0.27;;;;;;;18.21;100.00;95320.25;5112898;28;20428;-56
2022/09/15 04:49:34;;;;;;;0.40;0.30;;;;;;;18.30;100.00;95312.19;5113044;28;20510;-56
2022/09/15 04:52:02;;;;;;;0.47;0.30;;;;;;;18.32;100.00;95313.44;5113214;28;20482;-56
2022/09/15 04:54:36;;;;;;;1.13;1.13;;;;;;;17.35;100.00;95324.69;5112790;28;20431;-55
2022/09/15 04:57:05;;;;;;;1.83;1.57;;;;;;;16.14;100.00;95258.28;5112024;28;21133;-55
2022/09/15 04:59:33;;;;;;;1.43;1.33;;;;;;;16.12;100.00;95326.53;5112749;28;20451;-56
2022/09/15 05:02:02;;;;;;;0.50;0.40;;;;;;;16.10;100.00;95334.06;5112508;28;20925;-55
2022/09/15 05:04:32;;;;;;;0.47;0.33;;;;;;;16.20;100.00;95333.81;5112969;28;20416;-55
2022/09/15 05:07:00;;;;;;;0.80;0.73;;;;;;;16.12;100.00;95329.19;5112637;28;20440;-56
2022/09/15 05:09:29;;;;;;;0.60;0.43;;;;;;;15.81;100.00;95327.22;5112805;28;20420;-55
2022/09/15 05:11:58;;;;;;;0.40;0.30;;;;;;;16.16;100.00;95328.31;5112653;28;20486;-55
2022/09/15 05:14:26;;;;;;;0.60;0.50;;;;;;;15.95;100.00;95329.06;5112862;28;20420;-55
2022/09/15 05:16:54;;;;;;;1.13;1.13;;;;;;;16.24;100.00;95326.78;5112702;28;20458;-56
2022/09/15 05:19:23;;;;;;;0.57;0.57;;;;;;;16.49;100.00;95323.50;5112529;28;20431;-55
2022/09/15 05:21:52;;;;;;;0.50;0.40;;;;;;;17.07;100.00;95334.06;5112508;28;20431;-55
2022/09/15 05:24:21;;;;;;;0.50;0.40;;;;;;;17.34;100.00;95331.16;5111856;28;20427;-55
2022/09/15 05:26:49;;;;;;;0.50;0.40;;;;;;;17.90;100.00;95333.00;5112641;28;20426;-54
2022/09/15 05:29:18;;;;;;;0.40;0.23;;;;;;;17.95;100.00;95329.38;5112881;28;20419;-55
2022/09/15 05:31:46;;;;;;;2.80;2.60;;;;;;;17.77;100.00;95337.41;5112491;28;20415;-56
2022/09/15 05:34:15;;;;;;;0.50;0.30;;;;;;;18.48;100.00;95334.44;5112273;28;20473;-56
2022/09/15 05:36:43;;;;;;;0.50;0.50;;;;;;;18.57;100.00;95330.63;5112333;28;20419;-57
2022/09/15 05:39:13;;;;;;;0.40;0.40;;;;;;;18.54;100.00;95319.75;5112497;28;20415;-57
2022/09/15 05:41:41;;;;;;;0.40;0.23;;;;;;;18.12;100.00;95332.84;5112242;28;20435;-56
2022/09/15 05:44:10;;;;;;;0.53;0.43;;;;;;;18.03;100.00;95315.19;5112328;28;20768;-57
2022/09/15 05:46:38;;;;;;;0.40;0.30;;;;;;;18.26;100.00;95314.72;5112560;28;20455;-57
2022/09/15 05:49:07;;;;;;;0.50;0.40;;;;;;;18.73;100.00;95325.53;5112396;28;20427;-58
2022/09/15 05:51:36;;;;;;;0.50;0.40;;;;;;;19.56;100.00;95315.91;5112283;28;20420;-57
2022/09/15 05:54:05;;;;;;;0.87;0.60;;;;;;;19.52;100.00;95320.34;5112106;28;20486;-57
2022/09/15 05:56:35;;;;;;;0.40;0.30;;;;;;;19.58;100.00;95311.00;5111936;28;20420;-57
2022/09/15 05:59:03;;;;;;;0.40;0.27;;;;;;;20.07;100.00;95301.28;5112002;28;20436;-57
2022/09/15 06:01:32;;;;;;;0.40;0.20;;;;;;;20.82;92.94;95300.16;5111954;28;20829;-56
2022/09/15 06:04:00;;;;;;;0.50;0.30;;;;;;;20.35;94.73;95286.19;5112183;28;20835;-56
2022/09/15 06:06:31;;;;;;;7.70;0.40;;;;;;;20.07;95.79;95258.25;5112197;28;20420;-55
2022/09/15 06:09:00;;;;;;;0.60;0.50;;;;;;;20.97;93.56;95277.16;5111808;28;20420;-56
2022/09/15 06:11:32;;;;;;;0.50;0.40;;;;;;;21.05;89.68;95250.06;5111955;28;20435;-55
2022/09/15 06:14:03;;;;;;;0.50;0.40;;;;;;;20.74;90.16;95295.63;5111816;28;20463;-55
2022/09/15 06:16:33;;;;;;;2.00;1.43;;;;;;;20.91;92.35;95298.13;5111810;28;20446;-54
2022/09/15 06:19:02;;;;;;;0.50;0.40;;;;;;;21.04;86.34;95183.84;5112093;28;20458;-54
2022/09/15 06:21:32;;;;;;;0.50;0.47;;;;;;;21.50;85.03;95299.28;5111839;28;20458;-54
2022/09/15 06:24:02;;;;;;;0.67;0.60;;;;;;;21.55;82.82;95297.50;5112018;28;20424;-54
2022/09/15 06:26:31;;;;;;;0.87;0.87;;;;;;;21.28;84.71;95293.56;5112143;28;20469;-54
2022/09/15 06:29:00;;;;;;;0.50;0.50;;;;;;;21.48;83.06;95288.06;5111681;28;20874;-54
2022/09/15 06:31:32;;;;;;;1.67;0.40;;;;;;;21.61;84.71;95291.53;5111892;28;20423;-54
2022/09/15 06:34:02;;;;;;;0.40;0.40;;;;;;;22.28;79.07;95285.44;5111678;28;20805;-54
2022/09/15 06:36:31;;;;;;;1.83;1.80;;;;;;;23.15;75.08;95288.13;5112556;28;20901;-54
2022/09/15 06:39:00;;;;;;;0.50;0.40;;;;;;;22.20;76.29;95228.88;5115547;28;20429;-54
2022/09/15 06:41:29;;;;;;;0.60;0.60;;;;;;;22.98;72.61;95286.56;5115724;28;20430;-54
2022/09/15 06:44:17;;;;;;;0.47;0.40;;;;;;;23.20;70.63;95250.78;5115576;28;20442;-54
2022/09/15 06:46:47;;;;;;;0.50;0.43;;;;;;;23.60;68.37;95280.38;5115631;28;20427;-54
2022/09/15 06:49:15;;;;;;;0.57;0.53;;;;;;;23.59;65.23;95278.78;5115896;28;20537;-54
2022/09/15 06:51:43;;;;;;;0.57;0.57;;;;;;;23.94;66.67;95284.97;5116005;28;20784;-54
2022/09/15 06:54:13;;;;;;;0.50;0.40;;;;;;;24.19;62.60;95284.72;5115693;28;20485;-54
2022/09/15 06:56:42;;;;;;;0.60;0.57;;;;;;;24.34;61.72;95275.75;5115275;28;20952;-54
2022/09/15 06:59:13;;;;;;;0.40;0.30;;;;;;;24.78;58.94;95279.72;5115686;28;20439;-54
2022/09/15 07:01:41;;;;;;;0.90;0.90;;;;;;;24.51;57.41;95276.13;5115601;28;20434;-55
2022/09/15 07:04:11;;;;;;;1.13;0.50;;;;;;;24.84;60.18;95286.44;5115572;28;20446;-55
2022/09/15 07:06:39;;;;;;;0.67;0.40;;;;;;;25.40;57.56;95285.81;5115564;28;20438;-55
2022/09/15 07:09:08;;;;;;;0.80;0.80;;;;;;;25.57;53.46;95277.19;5115568;28;20420;-55
2022/09/15 07:11:36;;;;;;;0.70;0.70;;;;;;;25.22;53.40;95283.56;5115203;28;20790;-56
2022/09/15 07:14:05;;;;;;;0.73;0.73;;;;;;;25.58;53.83;95284.94;5115394;28;20810;-56
2022/09/15 07:16:33;;;;;;;0.40;0.30;;;;;;;26.07;51.72;95289.50;5115173;28;20435;-56
2022/09/15 07:19:04;;;;;;;2.77;0.57;;;;;;;25.68;51.20;95289.75;5114880;28;20427;-56
2022/09/15 07:21:34;;;;;;;0.40;0.40;;;;;;;26.13;50.92;95291.59;5114892;28;20851;-56
2022/09/15 07:24:03;;;;;;;0.70;0.57;;;;;;;26.51;50.12;95278.84;5114805;28;20427;-56
2022/09/15 07:26:34;;;;;;;1.00;0.70;;;;;;;26.26;49.77;95233.13;5115042;27;20439;-56
2022/09/15 07:29:06;;;;;;;0.70;0.70;;;;;;;26.70;48.10;95287.59;5114771;28;20437;-56
2022/09/15 07:31:36;;;;;;;0.50;0.33;;;;;;;27.44;47.01;95295.72;5114446;28;20430;-56
2022/09/15 07:34:06;;;;;;;0.50;0.40;;;;;;;28.16;42.88;95288.44;5114760;28;20470;-56
2022/09/15 07:36:36;;;;;;;0.50;0.50;;;;;;;27.17;44.34;95262.44;5115311;28;20417;-56
2022/09/15 07:39:05;;;;;;;0.40;0.30;;;;;;;28.18;44.62;95290.81;5115184;28;20934;-55
2022/09/15 07:41:33;;;;;;;0.73;0.73;;;;;;;28.55;41.43;95291.34;5114679;28;20437;-55
2022/09/15 07:44:02;;;;;;;0.70;0.70;;;;;;;28.27;43.00;95296.69;5114525;28;20433;-56
2022/09/15 07:46:32;;;;;;;0.60;0.50;;;;;;;27.76;42.75;95290.50;5114471;28;20432;-55
2022/09/15 07:49:01;;;;;;;1.23;0.50;;;;;;;27.93;44.16;95287.88;5113828;28;20430;-55
2022/09/15 07:51:30;;;;;;;0.50;0.40;;;;;;;28.43;42.48;95291.69;5114370;28;20509;-55
2022/09/15 07:54:00;;;;;;;0.83;0.70;;;;;;;28.49;41.85;95292.09;5114100;28;20467;-55
2022/09/15 07:56:28;;;;;;;0.60;0.50;;;;;;;28.71;40.94;95280.91;5114075;28;20436;-55
2022/09/15 07:58:57;;;;;;;0.50;0.50;;;;;;;29.41;39.99;95276.72;5114430;28;20807;-55
2022/09/15 08:01:26;;;;;;;0.50;0.40;;;;;;;29.51;38.36;95284.94;5114303;28;20436;-54
2022/09/15 08:03:54;;;;;;;0.60;0.60;;;;;;;29.28;38.87;95291.94;5113968;28;20518;-54
2022/09/15 08:06:24;;;;;;;0.50;0.40;;;;;;;29.31;37.98;95296.63;5114312;27;20429;-55
2022/09/15 08:08:53;;;;;;;0.50;0.40;;;;;;;29.90;37.41;95286.88;5114565;27;20443;-54
2022/09/15 08:11:29;;;;;;;0.50;0.50;;;;;;;30.48;36.55;95281.66;5114010;28;20512;-55
2022/09/15 08:14:01;;;;;;;0.50;0.40;;;;;;;30.79;36.96;95288.91;5113887;28;20500;-55
2022/09/15 08:16:29;;;;;;;0.50;0.30;;;;;;;29.93;36.12;95278.66;5114138;28;20815;-55
2022/09/15 08:18:57;;;;;;;0.43;0.33;;;;;;;30.11;36.37;95275.88;5113835;28;20427;-55
2022/09/15 08:21:26;;;;;;;0.40;0.40;;;;;;;30.55;37.72;95272.63;5113732;28;20442;-55
2022/09/15 08:23:56;;;;;;;0.40;0.30;;;;;;;31.01;36.87;95269.66;5113661;28;20940;-55
2022/09/15 08:26:26;;;;;;;0.57;0.40;;;;;;;31.34;36.35;95267.06;5113972;28;20905;-55
2022/09/15 08:28:56;;;;;;;0.40;0.30;;;;;;;31.46;33.71;95262.28;5113548;28;20440;-55
2022/09/15 08:31:25;;;;;;;3.63;0.50;;;;;;;30.96;33.75;95201.66;5113660;28;20435;-55
2022/09/15 08:33:55;;;;;;;0.80;0.50;;;;;;;31.45;34.68;95260.75;5113653;28;20497;-55
2022/09/15 08:36:26;;;;;;;0.40;0.30;;;;;;;32.01;33.21;95261.00;5113770;28;20461;-55
2022/09/15 08:38:55;;;;;;;1.90;0.40;;;;;;;32.21;31.11;95252.16;5113402;28;20429;-55
2022/09/15 08:41:28;;;;;;;0.83;0.83;;;;;;;32.31;31.18;95257.53;5113435;28;20432;-54
2022/09/15 08:44:04;;;;;;;0.40;0.30;;;;;;;32.11;31.00;95255.81;5113344;28;20422;-55
2022/09/15 08:46:38;;;;;;;1.30;0.30;;;;;;;32.55;31.26;95250.22;5113653;28;20429;-55
2022/09/15 08:49:13;;;;;;;0.70;0.70;;;;;;;32.77;30.68;95253.44;5113278;28;20425;-55
2022/09/15 08:51:46;;;;;;;0.40;0.30;;;;;;;32.75;31.56;95245.63;5113483;28;20425;-54
2022/09/15 08:54:20;;;;;;;0.60;0.40;;;;;;;32.73;30.04;95239.00;5113393;27;20919;-54
2022/09/15 08:56:48;;;;;;;2.17;0.70;;;;;;;33.44;29.53;95236.00;5112929;28;20469;-54
2022/09/15 08:59:20;;;;;;;0.50;0.30;;;;;;;33.90;29.36;95221.47;5112234;28;20426;-55
2022/09/15 09:02:03;;;;;;;0.53;0.53;;;;;;;33.58;30.09;95233.81;5112473;28;20925;-55
2022/09/15 09:04:51;;;;;;;0.50;0.30;;;;;;;33.56;30.56;95238.94;5112866;28;20435;-55
2022/09/15 09:07:34;;;;;;;0.40;0.30;;;;;;;33.48;29.86;95242.19;5112928;28;20445;-54
2022/09/15 09:10:12;;;;;;;0.77;0.50;;;;;;;33.43;29.17;95221.47;5112550;28;20522;-54
2022/09/15 09:12:54;;;;;;;0.30;0.30;;;;;;;33.73;29.74;95215.84;5112856;28;20765;-54
2022/09/15 09:15:36;;;;;;;1.70;0.40;;;;;;;34.10;28.73;95225.03;5112668;28;21132;-54
2022/09/15 09:18:38;;;;;;;0.40;0.30;;;;;;;34.53;29.28;95209.22;5112810;28;20418;-55
2022/09/15 09:21:17;;;;;;;0.47;0.33;;;;;;;34.79;27.73;95204.72;5099355;28;20449;-55
2022/09/15 09:23:50;;;;;;;1.90;0.40;;;;;;;34.34;27.95;95191.50;5113071;28;20535;-54
2022/09/15 09:26:18;;;;;;;0.70;0.70;;;;;;;34.78;27.47;95192.94;5112555;28;20850;-55
2022/09/15 09:28:54;;;;;;;0.60;0.60;;;;;;;35.21;26.65;95191.97;5113012;28;20920;-55
2022/09/15 09:31:27;;;;;;;0.50;0.50;;;;;;;36.13;25.63;95182.13;5112491;28;20431;-54
2022/09/15 09:34:05;;;;;;;0.50;0.30;;;;;;;37.04;25.09;95177.84;5112348;28;20557;-54
2022/09/15 09:36:34;;;;;;;0.67;0.53;;;;;;;35.89;26.15;95172.50;5112571;28;20189;-54
2022/09/15 09:39:04;;;;;;;0.50;0.50;;;;;;;36.18;25.64;95178.81;5112616;28;20427;-55
2022/09/15 09:41:35;;;;;;;0.50;0.37;;;;;;;36.15;26.36;95166.66;5112642;28;20269;-55
2022/09/15 09:44:06;;;;;;;0.30;0.27;;;;;;;36.43;25.57;95164.28;5112303;28;20186;-55
2022/09/15 09:46:36;;;;;;;0.50;0.40;;;;;;;36.10;26.27;95161.66;5112682;28;20187;-55
2022/09/15 09:49:12;;;;;;;0.50;0.40;;;;;;;35.46;25.95;95148.00;5112454;28;20214;-54
2022/09/15 09:51:50;;;;;;;0.50;0.37;;;;;;;35.63;26.60;95155.06;5112890;27;20189;-54
2022/09/15 09:54:20;;;;;;;2.90;0.50;;;;;;;35.57;25.99;95154.81;5112154;28;20215;-54
2022/09/15 09:56:50;;;;;;;0.70;0.70;;;;;;;36.71;25.39;95146.88;5112500;28;20233;-55
2022/09/15 09:59:42;;;;;;;0.90;0.40;;;;;;;37.12;25.14;95155.03;5112653;28;20211;-55
2022/09/15 10:02:17;;;;;;;0.30;0.30;;;;;;;36.48;25.21;95159.03;5092717;28;20206;-55
2022/09/15 10:04:47;;;;;;;0.90;0.77;;;;;;;36.21;24.96;95153.06;5112378;28;20193;-54
2022/09/15 10:07:17;;;;;;;15.03;0.67;;;;;;;36.51;25.36;95147.06;5112431;28;20195;-55
2022/09/15 10:09:52;;;;;;;0.50;0.50;;;;;;;37.93;24.02;95129.38;5111833;28;20203;-54
2022/09/15 10:12:25;;;;;;;0.45;0.30;;;;;;;38.18;24.83;95134.78;5115968;28;20187;-55
2022/09/15 10:14:56;;;;;;;0.40;0.30;;;;;;;38.12;24.83;95126.31;5116123;27;20210;-55
2022/09/15 10:17:37;;;;;;;0.50;0.50;;;;;;;37.95;24.76;95121.44;5116152;28;20203;-55
2022/09/15 10:20:21;;;;;;;0.90;0.63;;;;;;;35.76;26.95;95133.06;5116512;28;20193;-55
2022/09/15 10:22:50;;;;;;;2.95;0.47;;;;;;;35.79;27.44;95124.69;5116009;28;20199;-55
2022/09/15 10:25:34;;;;;;;0.40;0.40;;;;;;;37.16;26.83;95119.00;5116049;28;20570;-54
2022/09/15 10:28:24;;;;;;;0.30;0.30;;;;;;;36.92;28.62;95116.56;5115944;28;20604;-54
2022/09/15 10:31:05;;;;;;;0.40;0.40;;;;;;;37.61;26.64;95110.38;5116050;28;20196;-54
2022/09/15 10:33:36;;;;;;;0.40;0.30;;;;;;;37.37;27.20;95115.50;5116483;28;20191;-54
2022/09/15 10:36:07;;;;;;;0.43;0.30;;;;;;;36.59;25.22;95111.72;5115991;27;20220;-54
2022/09/15 10:38:43;;;;;;;0.40;0.30;;;;;;;35.78;26.32;95117.63;5116094;28;20188;-54
2022/09/15 10:41:20;;;;;;;0.30;0.30;;;;;;;36.09;27.30;95107.69;5116070;28;20194;-54
2022/09/15 10:44:04;;;;;;;1.75;0.68;;;;;;;36.44;27.83;95103.09;5115936;28;20218;-56
2022/09/15 10:46:46;;;;;;;0.50;0.50;;;;;;;36.27;27.97;95101.66;5115799;28;20196;-57
2022/09/15 10:49:32;;;;;;;0.30;0.30;;;;;;;35.87;29.69;95109.50;5115926;28;20192;-57
2022/09/15 10:52:10;;;;;;;0.40;0.40;;;;;;;36.42;28.82;95099.22;5115429;28;20207;-57
2022/09/15 10:54:55;;;;;;;0.40;0.35;;;;;;;36.60;27.83;95100.25;5115825;28;20195;-57
2022/09/15 10:57:42;;;;;;;0.40;0.40;;;;;;;36.95;26.85;95090.06;5115363;28;20720;-58
2022/09/15 11:00:17;;;;;;;0.47;0.32;;;;;;;37.74;26.69;95092.50;5115784;27;20200;-59
2022/09/15 11:03:17;;;;;;;0.55;0.55;;;;;;;37.62;25.42;95082.28;5115246;28;20197;-59
2022/09/15 11:05:54;;;;;;;0.40;0.40;;;;;;;38.81;24.85;95073.44;5108656;28;20207;-58
2022/09/15 11:08:39;;;;;;;0.63;0.30;;;;;;;39.14;24.34;95073.66;5115244;28;20196;-58
2022/09/15 11:11:13;;;;;;;0.52;0.52;;;;;;;39.16;24.29;95068.41;5115417;28;20199;-58
2022/09/15 11:13:55;;;;;;;0.30;0.30;;;;;;;39.25;24.36;95069.22;5115462;28;20192;-58
2022/09/15 11:16:42;;;;;;;0.52;0.52;;;;;;;38.52;24.58;95059.91;5115291;28;20224;-58
2022/09/15 11:19:34;;;;;;;0.55;0.40;;;;;;;38.79;26.08;95050.94;5115405;28;20189;-57
2022/09/15 11:22:10;;;;;;;0.32;0.32;;;;;;;38.63;26.63;95045.66;5114054;28;20659;-58
2022/09/15 11:24:44;;;;;;;0.30;0.30;;;;;;;37.80;25.84;95048.44;5115279;28;20192;-58
2022/09/15 11:27:20;;;;;;;0.30;0.30;;;;;;;37.78;25.48;95040.56;5114809;28;20790;-57
2022/09/15 11:30:04;;;;;;;0.88;0.88;;;;;;;37.90;25.42;95028.66;5114932;28;20200;-57
2022/09/15 11:32:40;;;;;;;0.47;0.47;;;;;;;38.01;25.31;95034.59;5115137;28;20595;-57
2022/09/15 11:35:28;;;;;;;0.95;0.95;;;;;;;38.92;25.36;95025.84;5114687;28;20211;-57
2022/09/15 11:38:03;;;;;;;7.10;0.93;;;;;;;38.27;24.70;95026.88;5114698;28;20204;-58
2022/09/15 11:40:38;;;;;;;1.48;0.40;;;;;;;38.12;26.02;95026.66;5114457;28;20678;-58
2022/09/15 11:43:16;;;;;;;0.30;0.30;;;;;;;38.94;25.62;95021.41;5114865;28;20192;-58
2022/09/15 11:45:49;;;;;;;0.50;0.50;;;;;;;39.14;25.30;95012.66;5114416;28;20207;-58
2022/09/15 11:48:23;;;;;;;0.63;0.47;;;;;;;39.23;25.06;95012.69;5114453;28;20199;-58
2022/09/15 11:50:55;;;;;;;0.35;0.30;;;;;;;39.37;24.77;94994.66;5114097;28;20192;-58
2022/09/15 11:53:33;;;;;;;0.30;0.30;;;;;;;39.04;24.10;94966.75;5114355;28;20193;-58